createdAt,value
2023-02-19T00:02:40.213Z,81.54
2023-02-19T00:08:48.970Z,81.49
2023-02-19T00:14:12.317Z,81.57
2023-02-19T00:20:16.336Z,81.62
2023-02-19T00:26:46.442Z,81.61
2023-02-19T00:32:51.108Z,82.26
2023-02-19T00:38:59.011Z,82.58
2023-02-19T00:46:00.251Z,82.84
2023-02-19T00:52:22.969Z,83.01
2023-02-19T00:58:28.839Z,82.95
2023-02-19T01:05:12.060Z,83.23
2023-02-19T01:11:57.509Z,83.28
2023-02-19T01:18:43.176Z,83.64
2023-02-19T01:25:46.913Z,83.38
2023-02-19T01:32:54.901Z,83.68
2023-02-19T01:40:08.501Z,83.98
2023-02-19T01:46:51.831Z,83.83
2023-02-19T01:53:51.539Z,84.38
2023-02-19T02:00:55.230Z,84.29
2023-02-19T02:07:56.692Z,84.38
2023-02-19T02:15:01.323Z,84.36
2023-02-19T02:22:01.543Z,84.41
2023-02-19T02:29:18.091Z,84.67
2023-02-19T02:36:30.428Z,84.77
2023-02-19T02:43:33.990Z,85.11
2023-02-19T02:50:37.510Z,85.20
2023-02-19T02:57:41.273Z,85.11
2023-02-19T03:04:47.556Z,85.19
2023-02-19T03:12:24.572Z,85.24
2023-02-19T03:19:06.388Z,84.98
2023-02-19T03:26:24.824Z,84.68
2023-02-19T03:33:52.440Z,84.57
2023-02-19T03:41:01.775Z,84.65
2023-02-19T03:48:08.705Z,84.97
2023-02-19T03:55:15.399Z,85.10
2023-02-19T04:02:29.082Z,85.29
2023-02-19T04:09:32.669Z,85.29
2023-02-19T04:16:36.422Z,85.39
2023-02-19T04:23:44.036Z,85.45
2023-02-19T04:30:51.470Z,85.68
2023-02-19T04:37:54.871Z,85.61
2023-02-19T04:44:57.249Z,86.02
2023-02-19T04:52:00.874Z,86.02
2023-02-19T04:59:04.470Z,86.36
2023-02-19T05:06:07.727Z,86.53
2023-02-19T05:13:11.316Z,86.37
2023-02-19T05:20:14.806Z,86.32
2023-02-19T05:27:18.360Z,86.41
2023-02-19T05:34:22.040Z,86.63
2023-02-19T05:41:25.711Z,86.40
2023-02-19T05:48:23.147Z,86.37
2023-02-19T05:55:28.875Z,86.55
2023-02-19T06:02:32.729Z,86.35
2023-02-19T06:09:37.458Z,86.14
2023-02-19T06:16:41.139Z,86.62
2023-02-19T06:23:49.217Z,86.58
2023-02-19T06:30:52.944Z,86.14
2023-02-19T06:37:57.767Z,86.20
2023-02-19T06:45:01.361Z,86.61
2023-02-19T06:52:04.028Z,86.77
2023-02-19T06:58:42.019Z,87.17
2023-02-19T07:05:46.823Z,86.70
2023-02-19T07:12:51.491Z,86.99
2023-02-19T07:19:55.080Z,87.11
2023-02-19T07:27:18.579Z,87.26
2023-02-19T07:34:46.183Z,87.57
2023-02-19T07:41:55.803Z,87.74
2023-02-19T07:48:52.884Z,88.27
2023-02-19T07:55:51.277Z,88.07
2023-02-19T08:02:56.020Z,88.48
2023-02-19T08:09:59.672Z,88.47
2023-02-19T08:17:03.518Z,88.20
2023-02-19T08:24:08.213Z,88.13
2023-02-19T08:31:13.984Z,88.06
2023-02-19T08:38:26.615Z,87.82
2023-02-19T08:45:30.316Z,87.91
2023-02-19T08:52:34.610Z,88.02
2023-02-19T08:59:38.379Z,87.72
2023-02-19T09:06:32.959Z,87.61
2023-02-19T09:13:22.055Z,87.51
2023-02-19T09:20:22.460Z,87.43
2023-02-19T09:27:19.125Z,87.01
2023-02-19T09:33:38.817Z,86.99
2023-02-19T09:40:33.667Z,86.54
2023-02-19T09:47:33.481Z,86.31
2023-02-19T09:54:10.831Z,86.49
2023-02-19T10:01:00.647Z,86.18
2023-02-19T10:07:53.762Z,85.84
2023-02-19T10:14:37.179Z,85.44
2023-02-19T10:21:26.099Z,85.74
2023-02-19T10:28:32.528Z,85.58
2023-02-19T10:35:18.335Z,85.20
2023-02-19T10:42:21.817Z,84.54
2023-02-19T10:49:34.728Z,84.92
2023-02-19T10:56:47.632Z,84.40
2023-02-19T11:03:54.051Z,84.83
2023-02-19T11:10:50.243Z,83.87
2023-02-19T11:17:40.744Z,83.39
2023-02-19T11:24:47.169Z,82.58
2023-02-19T11:31:40.233Z,82.58
2023-02-19T11:38:34.954Z,82.39
2023-02-19T11:45:49.384Z,81.99
2023-02-19T11:53:00.949Z,81.62
2023-02-19T12:00:07.648Z,81.27
2023-02-19T12:06:49.307Z,81.36
2023-02-19T12:13:24.798Z,81.24
2023-02-19T12:20:11.519Z,79.86
2023-02-19T12:27:37.132Z,80.87
2023-02-19T12:34:20.734Z,80.83
2023-02-19T12:41:57.274Z,80.97
2023-02-19T12:48:49.601Z,80.56
2023-02-19T12:55:53.165Z,80.68
2023-02-19T13:10:19.356Z,80.34
2023-02-19T13:17:29.833Z,80.24
2023-02-19T13:24:19.199Z,80.83
2023-02-19T13:31:06.720Z,80.34
2023-02-19T13:37:42.143Z,79.41
2023-02-19T13:44:47.274Z,80.11
2023-02-19T13:51:58.366Z,80.40
2023-02-19T13:59:16.026Z,81.00
2023-02-19T14:06:10.787Z,81.32
2023-02-19T14:13:07.276Z,81.81
2023-02-19T14:20:13.872Z,81.76
2023-02-19T14:27:10.632Z,80.03
2023-02-19T14:34:20.157Z,79.90
2023-02-19T14:41:42.513Z,78.33
2023-02-19T14:48:50.845Z,78.28
2023-02-19T14:55:57.476Z,78.01
2023-02-19T15:02:54.847Z,79.23
2023-02-19T15:09:37.982Z,79.49
2023-02-19T15:16:25.818Z,79.79
2023-02-19T15:23:27.490Z,79.96
2023-02-19T15:30:19.809Z,80.27
2023-02-19T15:37:12.931Z,80.31
2023-02-19T15:44:24.606Z,79.36
2023-02-19T15:51:16.177Z,78.51
2023-02-19T15:58:22.496Z,79.13
2023-02-19T16:05:25.757Z,79.41
2023-02-19T16:12:34.763Z,78.58
2023-02-19T16:19:39.939Z,78.90
2023-02-19T16:26:33.995Z,78.15
2023-02-19T16:33:59.286Z,78.77
2023-02-19T16:40:31.638Z,78.52
2023-02-19T16:46:43.947Z,78.14
2023-02-19T16:52:59.170Z,78.60
2023-02-19T16:59:30.356Z,77.94
2023-02-19T17:06:34.507Z,77.30
2023-02-19T17:13:08.467Z,77.31
2023-02-19T17:19:28.025Z,77.64
2023-02-19T17:26:30.743Z,77.74
2023-02-19T17:33:32.940Z,77.97
2023-02-19T17:40:35.968Z,77.82
2023-02-19T17:47:06.498Z,78.10
2023-02-19T17:53:55.877Z,77.89
2023-02-19T18:00:53.105Z,77.83
2023-02-19T18:07:27.615Z,77.91
2023-02-19T18:14:04.697Z,77.49
2023-02-19T18:20:40.785Z,77.76
2023-02-19T18:26:33.601Z,78.04
2023-02-19T18:31:36.982Z,78.17
2023-02-19T18:36:38.568Z,78.35
2023-02-19T18:41:40.171Z,78.93
2023-02-19T18:46:41.725Z,79.65
2023-02-19T18:51:43.633Z,79.76
2023-02-19T18:56:45.965Z,80.02
2023-02-19T19:01:47.334Z,80.40
2023-02-19T19:06:48.893Z,80.51
2023-02-19T19:12:49.953Z,80.60
2023-02-19T19:19:10.993Z,80.78
2023-02-19T19:25:32.002Z,80.86
2023-02-19T19:30:35.618Z,81.04
2023-02-19T19:35:36.930Z,81.20
2023-02-19T19:41:37.943Z,81.11
2023-02-19T19:47:59.111Z,81.23
2023-02-19T19:54:20.281Z,81.58
2023-02-19T20:00:43.827Z,81.90
2023-02-19T20:07:06.432Z,81.93
2023-02-19T20:13:27.809Z,81.86
2023-02-19T20:19:08.847Z,81.87
2023-02-19T20:24:16.345Z,81.81
2023-02-19T20:29:17.874Z,81.50
2023-02-19T20:35:19.010Z,81.70
2023-02-19T20:41:07.172Z,81.65
2023-02-19T20:47:18.350Z,81.71
2023-02-19T20:52:40.020Z,81.55
2023-02-19T20:58:41.294Z,81.62
2023-02-19T21:05:11.379Z,81.32
2023-02-19T21:11:12.386Z,81.68
2023-02-19T21:16:33.646Z,82.00
2023-02-19T21:22:34.665Z,81.91
2023-02-19T21:28:55.837Z,81.77
2023-02-19T21:35:16.863Z,81.66
2023-02-19T21:41:37.861Z,81.60
2023-02-19T21:47:39.062Z,81.33
2023-02-19T21:53:40.135Z,81.83
2023-02-19T22:00:01.340Z,81.97
2023-02-19T22:06:22.504Z,82.28
2023-02-19T22:11:27.545Z,82.18
2023-02-19T22:16:31.701Z,81.92
2023-02-19T22:21:33.223Z,81.74
2023-02-19T22:26:35.325Z,81.89
2023-02-19T22:31:36.854Z,82.06
2023-02-19T22:36:39.822Z,82.08
2023-02-19T22:41:42.400Z,82.03
2023-02-19T22:46:54.582Z,82.41
2023-02-19T22:52:07.762Z,82.42
2023-02-19T22:57:09.405Z,82.21
2023-02-19T23:02:11.077Z,82.17
2023-02-19T23:07:12.565Z,82.41
2023-02-19T23:12:14.033Z,82.80
2023-02-19T23:17:15.268Z,82.99
2023-02-19T23:22:16.759Z,82.77
2023-02-19T23:27:18.085Z,83.23
2023-02-19T23:32:20.512Z,83.45
2023-02-19T23:37:22.013Z,83.26
2023-02-19T23:42:23.485Z,82.84
2023-02-19T23:47:26.037Z,83.03
2023-02-19T23:52:27.634Z,83.12
2023-02-19T23:57:28.946Z,83.25
